Sylvester, Georgia
Current Conditions -  °F | °C
As of 1:53 PM on Friday 31 Oct 2014 (Local Time) from KABY Reporting Station
Clear Clear  
Wind Chill: 69°   Ceiling: Unl
Heat Index: 69°   Visibility: 10mi
Dew Point: 43°   Wind: 9mph
Humidity: 39%   Direction: 270°W
Pressure: 29.91"   Gusts: NA
Location:  31.53°N, 83.83°W
Report Text: KABY 311753Z 27008KT 10SM CLR 21/06 A2991 RMK AO2 SLP127 6//// T02060061 10206 20061 58023 PNO
Loading
Personal Weather Stations






























Interactive Weather Map
Tropical Storm Tracking
New forecast layout! Learn more

10-Day Weather Forecast

Advertisements
Track Severe Weather on mobile